Time;durP1;ratioP1;P1;durP2;ratioP2;P2;SDS_P1;SDS_P2;PMS_P1;PMS_P2;Temp;Humidity;BMP_temperature;BMP_pressure;BME280_temperature;BME280_humidity;BME280_pressure;Samples;Min_cycle;Max_cycle;Signal;HPM_P1;HPM_P2
2024/01/19 00:01:23;;;;;;;3.42;1.90;;;;;;;-0.03;100.00;100711.00;6230014;28;20060;-76
2024/01/19 00:04:25;;;;;;;9.30;2.53;;;;;;;-0.01;100.00;100709.22;6229872;28;20057;-75
2024/01/19 00:07:26;;;;;;;6.45;2.17;;;;;;;-0.09;100.00;100708.47;6229117;28;20054;-75
2024/01/19 00:10:30;;;;;;;2.35;1.70;;;;;;;-0.05;100.00;100710.13;6229972;28;20057;-76
2024/01/19 00:13:32;;;;;;;5.30;2.17;;;;;;;-0.08;100.00;100712.78;6229282;28;20350;-75
2024/01/19 00:16:33;;;;;;;3.72;2.28;;;;;;;-0.13;100.00;100714.56;6229030;28;20510;-76
2024/01/19 00:19:34;;;;;;;2.58;1.88;;;;;;;-0.14;100.00;100717.97;6229382;28;20050;-76
2024/01/19 00:22:36;;;;;;;7.22;2.72;;;;;;;-0.13;100.00;100727.47;6229152;28;20053;-75
2024/01/19 00:25:39;;;;;;;2.42;1.63;;;;;;;-0.13;100.00;100729.19;6229135;28;20639;-75
2024/01/19 00:28:40;;;;;;;7.00;2.35;;;;;;;-0.14;100.00;100727.44;6229720;28;20053;-76
2024/01/19 00:31:45;;;;;;;4.20;1.98;;;;;;;-0.16;100.00;100724.91;6229268;28;20054;-76
2024/01/19 00:34:46;;;;;;;3.22;1.80;;;;;;;-0.20;100.00;100720.63;6229237;28;20046;-75
2024/01/19 00:37:48;;;;;;;3.95;1.65;;;;;;;-0.13;100.00;100730.03;6228608;28;20465;-76
2024/01/19 00:40:50;;;;;;;8.27;2.15;;;;;;;-0.06;100.00;100736.84;6229258;28;20050;-76
2024/01/19 00:43:52;;;;;;;3.42;1.77;;;;;;;-0.05;100.00;100732.53;6228957;28;20046;-76
2024/01/19 00:46:53;;;;;;;3.13;1.77;;;;;;;-0.05;100.00;100743.72;6228533;28;20053;-76
2024/01/19 00:49:55;;;;;;;7.80;2.08;;;;;;;-0.04;100.00;100745.44;6228904;28;20327;-76
2024/01/19 00:52:56;;;;;;;9.05;1.92;;;;;;;-0.03;100.00;100739.41;6228663;28;20050;-76
2024/01/19 00:55:59;;;;;;;5.47;2.00;;;;;;;-0.05;100.00;100743.72;6228523;28;20046;-76
2024/01/19 00:59:00;;;;;;;6.30;1.67;;;;;;;-0.03;100.00;100751.47;6228457;28;20045;-76
2024/01/19 01:02:01;;;;;;;3.38;1.83;;;;;;;-0.01;100.00;100752.28;6228404;28;20451;-76
2024/01/19 01:05:03;;;;;;;3.47;2.10;;;;;;;0.04;100.00;100750.53;6227964;28;20442;-76
2024/01/19 01:08:05;;;;;;;10.50;2.08;;;;;;;0.04;100.00;100755.69;6227856;28;20054;-76
2024/01/19 01:11:08;;;;;;;6.28;1.75;;;;;;;0.12;100.00;100761.63;6228514;28;20053;-76
2024/01/19 01:14:09;;;;;;;2.45;1.15;;;;;;;0.14;100.00;100767.66;6227941;28;20046;-76
2024/01/19 01:17:11;;;;;;;2.33;1.50;;;;;;;0.21;100.00;100771.03;6227980;28;20054;-76
2024/01/19 01:20:12;;;;;;;4.18;1.55;;;;;;;0.18;100.00;100769.34;6228136;28;20172;-76
2024/01/19 01:23:13;;;;;;;3.35;1.50;;;;;;;0.12;100.00;100773.69;6227800;28;20052;-76
2024/01/19 01:26:16;;;;;;;8.35;2.13;;;;;;;0.10;100.00;100765.97;6227470;28;20042;-76
2024/01/19 01:29:17;;;;;;;2.22;1.30;;;;;;;0.13;100.00;100767.66;6228183;28;20060;-77
2024/01/19 01:32:19;;;;;;;3.47;1.42;;;;;;;0.14;100.00;100774.56;6226180;28;20042;-76
2024/01/19 01:35:20;;;;;;;7.28;1.55;;;;;;;0.15;100.00;100784.00;6227024;28;20050;-77
2024/01/19 01:38:21;;;;;;;3.80;1.70;;;;;;;0.14;100.00;100778.00;6226829;28;20332;-75
2024/01/19 01:41:24;;;;;;;8.05;2.30;;;;;;;0.10;100.00;100778.91;6227388;28;20200;-75
2024/01/19 01:44:25;;;;;;;6.70;1.70;;;;;;;0.12;100.00;100789.22;6227485;28;20050;-77
2024/01/19 01:47:27;;;;;;;5.00;1.70;;;;;;;0.13;100.00;100790.91;6226733;28;20054;-75
2024/01/19 01:50:28;;;;;;;4.18;1.42;;;;;;;0.12;100.00;100790.06;6227505;28;20061;-76
2024/01/19 01:53:29;;;;;;;1.55;0.98;;;;;;;0.16;100.00;100783.13;6226924;28;20049;-76
2024/01/19 01:56:32;;;;;;;1.67;1.20;;;;;;;0.19;100.00;100790.88;6227116;28;20049;-76
2024/01/19 01:59:34;;;;;;;8.65;2.00;;;;;;;0.18;100.00;100794.31;6227270;28;20133;-76
2024/01/19 02:02:36;;;;;;;3.97;1.73;;;;;;;0.08;100.00;100796.13;6227075;28;20053;-76
2024/01/19 02:05:37;;;;;;;3.03;1.48;;;;;;;0.07;100.00;100788.41;6226621;28;20104;-76
2024/01/19 02:08:40;;;;;;;3.33;1.40;;;;;;;0.10;100.00;100801.28;6226881;28;20072;-76
2024/01/19 02:11:44;;;;;;;3.38;1.45;;;;;;;0.04;100.00;100807.34;6226992;28;20128;-77
2024/01/19 02:14:45;;;;;;;5.60;1.50;;;;;;;0.06;100.00;100802.19;6226724;28;20454;-76
2024/01/19 02:17:46;;;;;;;3.47;0.90;;;;;;;0.14;100.00;100800.41;6225950;28;20054;-76
2024/01/19 02:20:48;;;;;;;1.27;0.93;;;;;;;0.12;100.00;100808.13;6226835;28;20050;-77
2024/01/19 02:23:55;;;;;;;1.17;0.70;;;;;;;0.23;100.00;100813.22;6226560;28;20045;-76
2024/01/19 02:26:58;;;;;;;8.00;1.63;;;;;;;0.27;100.00;100819.19;6226036;28;20045;-77
2024/01/19 02:30:00;;;;;;;2.67;1.23;;;;;;;0.27;100.00;100816.63;6226744;28;20061;-77
2024/01/19 02:33:03;;;;;;;1.50;0.70;;;;;;;0.13;100.00;100820.19;6226350;28;20092;-77
2024/01/19 02:36:05;;;;;;;5.47;1.08;;;;;;;0.12;100.00;100827.97;6226040;28;20046;-77
2024/01/19 02:39:06;;;;;;;1.98;1.10;;;;;;;0.07;100.00;100828.00;6226436;28;20054;-77
2024/01/19 02:42:09;;;;;;;3.22;0.80;;;;;;;0.13;100.00;100820.19;6226559;28;20053;-76
2024/01/19 02:45:11;;;;;;;17.10;1.38;;;;;;;0.19;100.00;100827.03;6225931;28;20339;-77
2024/01/19 02:48:12;;;;;;;4.63;1.40;;;;;;;0.27;100.00;100819.19;6226034;28;20046;-77
2024/01/19 02:51:14;;;;;;;3.65;0.90;;;;;;;0.33;100.00;100830.34;6226265;28;20060;-77
2024/01/19 02:54:15;;;;;;;3.45;1.15;;;;;;;0.34;100.00;100821.72;6225858;28;20049;-77
2024/01/19 02:57:18;;;;;;;2.15;0.75;;;;;;;0.32;100.00;100820.88;6225604;28;20080;-75
2024/01/19 03:00:19;;;;;;;3.47;1.25;;;;;;;0.28;100.00;100814.03;6226088;28;20053;-77
2024/01/19 03:03:20;;;;;;;1.42;0.95;;;;;;;0.14;100.00;100818.50;6278456;22;20048;-75
2024/01/19 03:06:23;;;;;;;7.75;1.27;;;;;;;0.12;100.00;100821.06;6274714;28;20049;-76
2024/01/19 03:09:24;;;;;;;4.25;1.20;;;;;;;0.16;100.00;100821.91;6275358;28;20056;-75
2024/01/19 03:12:27;;;;;;;3.70;1.13;;;;;;;0.12;100.00;100822.78;6274924;28;20048;-76
2024/01/19 03:15:28;;;;;;;1.40;1.00;;;;;;;0.17;100.00;100819.28;6275193;28;20051;-76
2024/01/19 03:18:29;;;;;;;3.40;1.05;;;;;;;0.11;100.00;100842.63;6272036;28;20084;-75
2024/01/19 03:21:31;;;;;;;9.38;2.13;;;;;;;0.13;100.00;100846.03;6275251;28;20055;-75
2024/01/19 03:24:32;;;;;;;1.65;1.00;;;;;;;0.21;100.00;100851.97;6273541;28;20353;-76
2024/01/19 03:27:34;;;;;;;2.83;1.20;;;;;;;0.21;100.00;100859.75;6274683;28;20048;-75
2024/01/19 03:30:37;;;;;;;2.47;0.95;;;;;;;0.26;100.00;100859.69;6278457;28;20053;-75
2024/01/19 03:33:38;;;;;;;10.40;1.10;;;;;;;0.27;100.00;100858.81;6278936;28;20053;-75
2024/01/19 03:36:39;;;;;;;3.03;1.40;;;;;;;0.27;100.00;100838.13;6279185;28;20063;-75
2024/01/19 03:39:41;;;;;;;1.25;1.00;;;;;;;0.19;100.00;100846.00;6279662;28;20350;-76
2024/01/19 03:42:43;;;;;;;3.10;0.90;;;;;;;0.20;100.00;100850.28;6279833;28;20049;-76
2024/01/19 03:45:45;;;;;;;2.60;0.95;;;;;;;0.26;100.00;100846.78;6279238;28;20345;-75
2024/01/19 03:48:46;;;;;;;2.22;0.82;;;;;;;0.25;100.00;100843.34;6279826;28;20045;-75
2024/01/19 03:52:01;;;;;;;0.70;0.65;;;;;;;0.22;100.00;100850.25;6279383;28;20060;-75
2024/01/19 03:55:02;;;;;;;8.23;1.63;;;;;;;0.28;100.00;100855.38;6271539;28;20350;-76
2024/01/19 03:58:05;;;;;;;10.63;1.45;;;;;;;0.10;100.00;100863.31;6261660;28;20096;-76
2024/01/19 04:01:09;;;;;;;2.20;1.00;;;;;;;0.11;100.00;100863.28;6267953;28;20045;-75
2024/01/19 04:04:11;;;;;;;4.32;1.23;;;;;;;0.08;100.00;100867.59;6268099;28;20041;-75
2024/01/19 04:07:12;;;;;;;2.05;1.08;;;;;;;0.14;100.00;100873.59;6269448;28;20045;-75
2024/01/19 04:10:14;;;;;;;12.23;1.58;;;;;;;0.04;100.00;100868.50;6265916;28;20049;-76
2024/01/19 04:13:16;;;;;;;2.50;1.00;;;;;;;0.06;100.00;100877.97;6266344;28;20045;-75
2024/01/19 04:16:18;;;;;;;4.28;1.10;;;;;;;0.17;100.00;100881.31;6267892;28;20046;-75
2024/01/19 04:19:19;;;;;;;2.20;0.95;;;;;;;0.20;100.00;100883.03;6268791;28;20128;-75
2024/01/19 04:22:20;;;;;;;10.23;1.55;;;;;;;0.22;100.00;100889.88;6267590;28;20050;-75
2024/01/19 04:25:22;;;;;;;6.65;1.50;;;;;;;0.22;100.00;100887.28;6266390;28;20046;-74
2024/01/19 04:28:24;;;;;;;7.68;1.77;;;;;;;0.15;100.00;100893.41;6254407;28;20465;-74
2024/01/19 04:31:26;;;;;;;4.78;1.55;;;;;;;0.20;100.00;100901.97;6254042;28;20065;-75
2024/01/19 04:34:28;;;;;;;3.88;1.63;;;;;;;0.27;100.00;100894.16;6253935;28;20076;-75
2024/01/19 04:37:29;;;;;;;1.95;1.15;;;;;;;0.25;100.00;100912.25;6253156;28;20060;-75
2024/01/19 04:40:30;;;;;;;3.60;1.20;;;;;;;0.32;100.00;100911.34;6253136;28;20053;-75
2024/01/19 04:43:33;;;;;;;3.05;1.42;;;;;;;0.23;100.00;100927.78;6253349;28;20396;-74
2024/01/19 04:46:34;;;;;;;3.50;1.08;;;;;;;0.07;100.00;100927.91;6253356;28;20049;-74
2024/01/19 04:49:36;;;;;;;7.65;1.10;;;;;;;-0.01;100.00;100938.28;6253486;28;20353;-74
2024/01/19 04:52:37;;;;;;;2.80;1.65;;;;;;;0.02;100.00;100942.59;6253168;28;20049;-75
2024/01/19 04:55:38;;;;;;;3.83;1.35;;;;;;;0.02;100.00;100934.84;6252840;28;20346;-75
2024/01/19 04:58:41;;;;;;;3.63;1.63;;;;;;;-0.02;100.00;100940.00;6253223;28;20050;-75
2024/01/19 05:01:42;;;;;;;6.15;1.60;;;;;;;-0.07;100.00;100946.09;6253112;28;20392;-74
2024/01/19 05:04:43;;;;;;;1.30;1.20;;;;;;;-0.04;100.00;100951.25;6252969;28;20045;-75
2024/01/19 05:07:45;;;;;;;1.95;1.10;;;;;;;0.01;100.00;100943.47;6252601;28;20065;-74
2024/01/19 05:10:46;;;;;;;2.25;1.25;;;;;;;0.06;100.00;100960.63;6253109;28;20049;-75
2024/01/19 05:13:49;;;;;;;2.50;1.05;;;;;;;-0.01;100.00;100964.13;6252675;28;20050;-75
2024/01/19 05:16:50;;;;;;;1.55;1.20;;;;;;;0.11;100.00;100976.13;6252510;28;20446;-75
2024/01/19 05:19:51;;;;;;;4.13;1.70;;;;;;;0.09;100.00;100981.31;6253115;28;20045;-74
2024/01/19 05:22:53;;;;;;;1.50;1.20;;;;;;;0.09;100.00;100973.56;6252667;28;20049;-76
2024/01/19 05:25:54;;;;;;;4.38;1.90;;;;;;;0.12;100.00;100976.09;6252197;28;20053;-75
2024/01/19 05:28:56;;;;;;;3.10;2.10;;;;;;;0.19;100.00;100962.28;6252829;28;20050;-75
2024/01/19 05:31:58;;;;;;;3.88;1.40;;;;;;;0.18;100.00;100963.16;6265359;28;20048;-75
2024/01/19 05:34:59;;;;;;;7.72;2.05;;;;;;;0.18;100.00;100968.31;6276946;28;20041;-75
2024/01/19 05:38:00;;;;;;;2.53;1.40;;;;;;;0.16;100.00;100984.69;6276259;28;20056;-74
2024/01/19 05:41:03;;;;;;;3.33;2.00;;;;;;;0.06;100.00;100990.78;6277166;28;20052;-75
2024/01/19 05:44:06;;;;;;;14.45;2.00;;;;;;;0.15;100.00;100991.59;6276412;28;20057;-75
2024/01/19 05:47:07;;;;;;;10.23;1.95;;;;;;;0.02;100.00;100992.53;6276745;28;20049;-75
2024/01/19 05:50:09;;;;;;;3.20;1.65;;;;;;;-0.05;100.00;100996.84;6276922;28;20052;-75
2024/01/19 05:53:11;;;;;;;9.13;1.40;;;;;;;0.15;100.00;100995.91;6275482;28;20057;-75
2024/01/19 05:56:12;;;;;;;4.32;2.28;;;;;;;-0.01;100.00;100989.97;6276213;28;20464;-75
2024/01/19 05:59:15;;;;;;;3.42;1.60;;;;;;;-0.03;100.00;100997.72;6276488;28;20041;-75
2024/01/19 06:02:16;;;;;;;4.80;1.88;;;;;;;-0.12;100.00;100997.78;6276590;28;20087;-75
2024/01/19 06:05:17;;;;;;;5.03;1.48;;;;;;;-0.04;100.00;101003.75;6276057;28;20349;-75
2024/01/19 06:08:19;;;;;;;3.47;1.85;;;;;;;0.02;100.00;101013.19;6275975;28;20060;-75
2024/01/19 06:11:20;;;;;;;3.67;2.20;;;;;;;-0.01;100.00;101008.03;6276395;28;20643;-75
2024/01/19 06:14:23;;;;;;;13.30;2.70;;;;;;;-0.07;100.00;101021.84;6276206;28;20134;-75
2024/01/19 06:17:24;;;;;;;4.07;2.28;;;;;;;-0.05;100.00;101016.66;6267636;28;20049;-75
2024/01/19 06:20:26;;;;;;;7.53;2.22;;;;;;;0.00;100.00;101022.69;6264418;28;20445;-75
2024/01/19 06:23:28;;;;;;;6.57;2.42;;;;;;;0.03;100.00;101034.72;6262900;28;20040;-76
2024/01/19 06:26:32;;;;;;;4.15;2.00;;;;;;;-0.03;100.00;101039.06;6262742;28;20053;-75
2024/01/19 06:29:35;;;;;;;5.03;2.40;;;;;;;0.03;100.00;101043.31;6259487;28;20443;-75
2024/01/19 06:32:36;;;;;;;3.28;1.90;;;;;;;0.09;100.00;101042.44;6258433;28;20060;-75
2024/01/19 06:35:37;;;;;;;4.70;2.78;;;;;;;-0.01;100.00;101049.38;6274682;28;20052;-75
2024/01/19 06:38:39;;;;;;;7.13;2.80;;;;;;;-0.21;100.00;101048.63;6275422;28;20049;-75
2024/01/19 06:41:42;;;;;;;12.52;2.95;;;;;;;-0.17;100.00;101063.25;6275494;28;20183;-75
2024/01/19 06:44:45;;;;;;;6.47;2.63;;;;;;;-0.06;100.00;101058.88;6275280;28;20135;-75
2024/01/19 06:47:46;;;;;;;7.45;2.75;;;;;;;-0.05;100.00;101066.59;6266579;28;20049;-75
2024/01/19 06:50:47;;;;;;;8.52;3.40;;;;;;;-0.04;100.00;101081.25;6267035;28;20055;-75
2024/01/19 06:53:49;;;;;;;15.63;4.38;;;;;;;0.10;100.00;101090.69;6259877;28;20056;-75
2024/01/19 06:56:50;;;;;;;6.45;2.97;;;;;;;0.01;100.00;101088.13;6261600;28;20072;-75
2024/01/19 06:59:53;;;;;;;8.13;2.80;;;;;;;-0.05;100.00;101096.75;6263251;28;20049;-75
2024/01/19 07:02:54;;;;;;;9.05;3.92;;;;;;;0.09;100.00;101102.75;6266116;28;20048;-75
2024/01/19 07:05:56;;;;;;;10.27;3.40;;;;;;;-0.07;100.00;101111.41;6273740;28;20045;-74
2024/01/19 07:08:57;;;;;;;6.22;3.15;;;;;;;-0.06;100.00;101105.38;6274435;28;20072;-75
2024/01/19 07:11:58;;;;;;;5.85;3.55;;;;;;;0.09;100.00;101117.34;6274983;28;20045;-75
2024/01/19 07:15:01;;;;;;;9.05;3.55;;;;;;;0.04;100.00;101129.44;6274838;28;20044;-75
2024/01/19 07:18:02;;;;;;;7.63;3.00;;;;;;;0.09;100.00;101123.41;6274567;28;20052;-75
2024/01/19 07:21:04;;;;;;;6.22;3.30;;;;;;;-0.12;100.00;101126.91;6275244;28;20159;-75
2024/01/19 07:24:06;;;;;;;6.55;2.88;;;;;;;-0.05;100.00;101125.16;6274654;28;20134;-75
2024/01/19 07:27:07;;;;;;;10.10;3.10;;;;;;;-0.02;100.00;101127.75;6274737;28;20045;-75
2024/01/19 07:30:10;;;;;;;6.32;3.22;;;;;;;0.08;100.00;101120.81;6275053;28;20354;-75
2024/01/19 07:33:11;;;;;;;9.52;3.63;;;;;;;-0.09;100.00;101121.75;6274482;28;20354;-76
2024/01/19 07:36:15;;;;;;;7.78;3.20;;;;;;;-0.02;100.00;101126.00;6274277;28;20049;-75
2024/01/19 07:39:18;;;;;;;6.88;3.08;;;;;;;-0.04;100.00;101137.25;6265884;28;20073;-75
2024/01/19 07:42:20;;;;;;;7.63;3.38;;;;;;;-0.09;100.00;101149.28;6261559;28;20059;-75
2024/01/19 07:45:22;;;;;;;7.55;3.75;;;;;;;-0.05;100.00;101153.56;6262663;28;20061;-75
2024/01/19 07:48:24;;;;;;;7.68;3.90;;;;;;;-0.02;100.00;101164.75;6260531;28;20106;-75
2024/01/19 07:51:27;;;;;;;6.05;2.88;;;;;;;-0.02;100.00;101169.06;6271773;28;20124;-76
2024/01/19 07:54:28;;;;;;;5.78;3.13;;;;;;;0.00;100.00;101169.94;6274770;28;20056;-75
2024/01/19 07:57:29;;;;;;;7.22;3.67;;;;;;;0.04;100.00;101170.78;6273970;28;20037;-75
2024/01/19 08:00:32;;;;;;;8.95;4.20;;;;;;;-0.01;100.00;101181.13;6274535;28;20396;-75
2024/01/19 08:03:33;;;;;;;7.75;4.22;;;;;;;-0.03;100.00;101185.44;6272695;28;20075;-75
2024/01/19 08:06:35;;;;;;;11.70;4.30;;;;;;;0.07;100.00;101207.81;6273783;28;20072;-75
2024/01/19 08:09:36;;;;;;;8.35;4.30;;;;;;;0.03;100.00;101213.84;6274505;28;20060;-76
2024/01/19 08:12:37;;;;;;;14.18;4.03;;;;;;;-0.10;100.00;101210.41;6269509;28;20048;-75
2024/01/19 08:15:40;;;;;;;9.35;2.72;;;;;;;-0.02;100.00;101215.56;6274317;28;20061;-76
2024/01/19 08:18:41;;;;;;;15.70;3.95;;;;;;;0.02;100.00;101213.84;6280204;28;20059;-76
2024/01/19 08:21:43;;;;;;;11.20;4.43;;;;;;;0.10;100.00;101212.97;6278845;28;20052;-76
2024/01/19 08:24:44;;;;;;;6.60;3.45;;;;;;;-0.01;100.00;101220.72;6278550;28;20072;-76
2024/01/19 08:27:46;;;;;;;8.13;3.85;;;;;;;0.04;100.00;101230.19;6278429;28;20444;-76
2024/01/19 08:30:48;;;;;;;7.85;3.90;;;;;;;0.22;100.00;101230.16;6278634;28;20117;-76
2024/01/19 08:33:50;;;;;;;7.30;4.43;;;;;;;0.18;100.00;101239.66;6278232;28;20369;-76
2024/01/19 08:36:51;;;;;;;7.55;3.72;;;;;;;0.15;100.00;101239.66;6277901;28;20047;-76
2024/01/19 08:39:53;;;;;;;12.55;5.10;;;;;;;0.10;100.00;101250.88;6278575;28;20352;-76
2024/01/19 08:42:54;;;;;;;10.93;4.50;;;;;;;0.23;100.00;101247.41;6278290;28;20056;-75
2024/01/19 08:45:57;;;;;;;6.55;3.53;;;;;;;0.34;100.00;101255.09;6277180;28;20052;-76
2024/01/19 08:48:58;;;;;;;8.02;3.72;;;;;;;0.31;100.00;101257.69;6269568;28;20052;-76
2024/01/19 08:51:59;;;;;;;12.93;5.15;;;;;;;0.33;100.00;101261.16;6277940;28;20041;-76
2024/01/19 08:55:01;;;;;;;7.32;4.45;;;;;;;0.39;100.00;101258.53;6278015;28;20045;-76
2024/01/19 08:58:02;;;;;;;7.55;4.30;;;;;;;0.41;100.00;101264.53;6277442;28;20053;-76
2024/01/19 09:01:05;;;;;;;6.28;4.10;;;;;;;0.43;100.00;101268.00;6277986;28;20045;-76
2024/01/19 09:04:06;;;;;;;7.32;4.55;;;;;;;0.49;100.00;101268.81;6279872;22;20053;-73
2024/01/19 09:07:07;;;;;;;12.57;3.85;;;;;;;0.41;100.00;101272.31;6252580;28;20053;-72
2024/01/19 09:10:09;;;;;;;8.07;4.28;;;;;;;0.45;100.00;101272.28;6253159;28;20050;-73
2024/01/19 09:13:10;;;;;;;12.48;5.35;;;;;;;0.39;100.00;101286.97;6252900;28;20045;-73
2024/01/19 09:16:13;;;;;;;15.50;4.28;;;;;;;0.53;100.00;101281.75;6252612;28;20053;-73
2024/01/19 09:19:15;;;;;;;8.75;4.63;;;;;;;0.61;100.00;101292.94;6252455;28;20058;-72
2024/01/19 09:22:17;;;;;;;9.52;4.43;;;;;;;0.63;100.00;101296.38;6251896;28;20347;-72
2024/01/19 09:25:18;;;;;;;8.27;4.03;;;;;;;0.64;100.00;101303.28;6252220;28;20041;-72
2024/01/19 09:28:19;;;;;;;8.07;3.53;;;;;;;0.57;100.00;101299.84;6252173;28;20045;-72
2024/01/19 09:31:22;;;;;;;10.00;4.15;;;;;;;0.65;100.00;101295.50;6252392;28;20053;-72
2024/01/19 09:34:23;;;;;;;15.23;4.03;;;;;;;0.70;100.00;101313.59;6252185;28;20053;-73
2024/01/19 09:37:25;;;;;;;14.73;3.83;;;;;;;0.71;100.00;101303.22;6251592;28;20076;-72
2024/01/19 09:40:26;;;;;;;5.20;3.65;;;;;;;0.80;100.00;101310.09;6252582;28;20056;-73
2024/01/19 09:43:29;;;;;;;7.15;4.07;;;;;;;0.71;100.00;101321.34;6252044;28;20049;-72
2024/01/19 09:46:37;;;;;;;7.85;3.40;;;;;;;0.88;100.00;101339.41;6248854;28;20323;-73
2024/01/19 09:49:45;;;;;;;12.38;3.97;;;;;;;0.87;100.00;101335.09;6245381;28;20050;-72
2024/01/19 09:52:51;;;;;;;8.98;3.28;;;;;;;0.89;100.00;101340.25;6251736;28;20050;-73
2024/01/19 09:55:53;;;;;;;4.32;3.05;;;;;;;0.87;100.00;101347.16;6244563;28;20428;-73
2024/01/19 09:58:56;;;;;;;5.88;3.53;;;;;;;0.85;100.00;101354.06;6248861;28;20053;-73
2024/01/19 10:01:59;;;;;;;12.13;4.05;;;;;;;1.01;100.00;101360.91;6251652;28;20053;-73
2024/01/19 10:05:01;;;;;;;12.43;3.47;;;;;;;1.03;100.00;101359.16;6251253;28;20049;-72
2024/01/19 10:08:04;;;;;;;6.22;3.65;;;;;;;1.09;100.00;101361.75;6251205;28;20045;-73
2024/01/19 10:11:08;;;;;;;6.38;3.22;;;;;;;1.11;100.00;101362.59;6251479;28;20049;-74
2024/01/19 10:14:09;;;;;;;5.57;3.40;;;;;;;1.14;100.00;101364.31;6251478;28;20057;-73
2024/01/19 10:17:15;;;;;;;5.00;3.47;;;;;;;1.24;100.00;101377.19;6250976;28;20053;-73
2024/01/19 10:20:17;;;;;;;7.22;3.38;;;;;;;1.23;100.00;101372.88;6251384;28;20050;-72
2024/01/19 10:23:19;;;;;;;6.30;3.33;;;;;;;1.26;100.00;101378.03;6234695;28;20050;-73
2024/01/19 10:26:20;;;;;;;5.55;3.20;;;;;;;1.23;100.00;101384.97;6236062;28;20049;-73
2024/01/19 10:29:23;;;;;;;7.43;4.18;;;;;;;1.32;100.00;101386.63;6250776;28;20353;-73
2024/01/19 10:32:26;;;;;;;9.00;3.58;;;;;;;1.44;100.00;101394.34;6250927;28;20064;-73
2024/01/19 10:35:27;;;;;;;8.00;3.65;;;;;;;1.33;100.00;101399.59;6250873;28;20068;-72
2024/01/19 10:38:29;;;;;;;6.40;3.25;;;;;;;1.57;100.00;101400.31;6249595;28;20046;-73
2024/01/19 10:41:30;;;;;;;17.17;4.03;;;;;;;1.56;100.00;101396.88;6251155;28;20056;-74
2024/01/19 10:44:32;;;;;;;6.05;3.50;;;;;;;1.66;100.00;101398.53;6250310;28;20049;-74
2024/01/19 10:47:35;;;;;;;8.38;3.55;;;;;;;1.61;100.00;101396.84;6250452;28;20049;-73
2024/01/19 10:50:36;;;;;;;4.50;3.03;;;;;;;1.72;100.00;101393.31;6250686;28;20050;-73
2024/01/19 10:53:37;;;;;;;8.18;3.17;;;;;;;1.66;100.00;101403.72;6250851;28;20053;-73
2024/01/19 10:56:39;;;;;;;7.22;3.53;;;;;;;1.87;100.00;101404.47;6250429;28;20045;-73
2024/01/19 10:59:41;;;;;;;4.93;2.53;;;;;;;1.87;100.00;101399.28;6247259;28;20084;-73
2024/01/19 11:02:47;;;;;;;5.88;3.28;;;;;;;1.93;100.00;101388.84;6250118;28;20045;-74
2024/01/19 11:05:49;;;;;;;4.78;3.13;;;;;;;1.92;100.00;101394.91;6250179;28;20049;-72
2024/01/19 11:08:51;;;;;;;7.63;2.85;;;;;;;2.00;100.00;101394.00;6250400;28;20054;-73
2024/01/19 11:11:55;;;;;;;4.88;2.95;;;;;;;2.02;100.00;101399.16;6237322;28;20427;-73
2024/01/19 11:14:58;;;;;;;9.05;2.30;;;;;;;2.11;100.00;101393.03;6238104;28;20052;-73
2024/01/19 11:18:04;;;;;;;3.88;2.35;;;;;;;2.22;100.00;101398.97;6248979;28;20052;-74
2024/01/19 11:21:06;;;;;;;4.50;2.55;;;;;;;2.24;100.00;101392.94;6250832;28;20060;-72
2024/01/19 11:24:09;;;;;;;6.97;2.25;;;;;;;2.26;100.00;101396.34;6249926;28;20056;-72
2024/01/19 11:27:19;;;;;;;3.75;2.13;;;;;;;2.33;100.00;101393.72;6246108;28;20085;-73
2024/01/19 11:30:31;;;;;;;5.55;1.98;;;;;;;2.41;100.00;101384.16;6249196;28;20454;-73
2024/01/19 11:33:33;;;;;;;10.52;2.45;;;;;;;2.58;100.00;101390.00;6241534;28;20053;-73
2024/01/19 11:36:48;;;;;;;4.43;2.28;;;;;;;2.50;100.00;101400.47;6245054;28;20061;-72
2024/01/19 11:39:49;;;;;;;5.13;2.22;;;;;;;2.68;100.00;101403.75;6247638;28;20049;-74
2024/01/19 11:42:51;;;;;;;4.78;2.00;;;;;;;2.76;100.00;101409.72;6249373;28;20053;-74
2024/01/19 11:45:53;;;;;;;4.00;2.10;;;;;;;2.77;100.00;101414.03;6249067;28;20057;-75
2024/01/19 11:48:55;;;;;;;4.00;2.10;;;;;;;2.75;100.00;101415.78;6243617;28;20053;-74
2024/01/19 11:51:57;;;;;;;2.78;1.40;;;;;;;2.76;100.00;101410.56;6242620;28;20153;-74
2024/01/19 11:55:00;;;;;;;12.18;2.38;;;;;;;2.76;100.00;101407.97;6244541;28;20046;-73
2024/01/19 11:58:25;;;;;;;3.33;1.73;;;;;;;2.84;100.00;101414.84;6247237;28;20369;-75
2024/01/19 12:01:27;;;;;;;3.28;1.88;;;;;;;2.85;100.00;101401.81;6242640;28;20062;-74
2024/01/19 12:04:30;;;;;;;8.43;1.70;;;;;;;2.97;100.00;101422.47;6242978;28;20129;-73
2024/01/19 12:07:31;;;;;;;2.83;1.60;;;;;;;3.01;100.00;101418.09;6243189;28;20052;-73
2024/01/19 12:10:32;;;;;;;6.47;2.13;;;;;;;3.06;100.00;101413.72;6241400;28;20423;-73
2024/01/19 12:13:36;;;;;;;14.13;4.00;;;;;;;3.17;100.00;101422.22;6241214;28;20041;-74
2024/01/19 12:16:38;;;;;;;14.65;6.13;;;;;;;3.28;100.00;101419.53;6242206;28;20053;-73
2024/01/19 12:19:41;;;;;;;10.82;2.05;;;;;;;3.26;100.00;101423.84;6251350;28;20053;-74
2024/01/19 12:22:44;;;;;;;7.93;2.17;;;;;;;3.35;100.00;101418.53;6242053;28;20046;-75
2024/01/19 12:25:45;;;;;;;2.67;1.50;;;;;;;3.48;100.00;101417.50;6251450;28;20053;-74
2024/01/19 12:28:49;;;;;;;4.03;1.73;;;;;;;3.46;100.00;101432.28;6251791;28;20049;-74
2024/01/19 12:31:51;;;;;;;7.95;2.22;;;;;;;3.56;100.00;101425.22;6250752;28;20061;-73
2024/01/19 12:35:01;;;;;;;5.22;1.63;;;;;;;3.60;100.00;101428.63;6253044;28;20053;-74
2024/01/19 12:38:02;;;;;;;7.28;2.20;;;;;;;3.75;100.00;101434.47;6252668;28;20046;-75
2024/01/19 12:41:04;;;;;;;2.97;1.85;;;;;;;3.74;100.00;101444.91;6253615;28;20061;-74
2024/01/19 12:44:06;;;;;;;7.88;2.20;;;;;;;3.72;100.00;101434.50;6253034;28;20385;-73
2024/01/19 12:47:07;;;;;;;4.13;2.13;;;;;;;3.64;100.00;101423.38;6252915;28;20065;-73
2024/01/19 12:50:10;;;;;;;4.22;1.92;;;;;;;3.72;100.00;101441.44;6253650;28;20057;-74
2024/01/19 12:53:14;;;;;;;8.60;2.17;;;;;;;3.37;100.00;101439.34;6253163;28;20053;-73
2024/01/19 12:56:25;;;;;;;3.20;1.73;;;;;;;3.40;100.00;101441.88;6252934;28;20057;-74
2024/01/19 12:59:26;;;;;;;5.38;1.90;;;;;;;3.39;100.00;101440.16;6252989;28;20048;-74
2024/01/19 13:02:28;;;;;;;6.72;3.00;;;;;;;3.39;100.00;101442.75;6252456;28;20365;-74
2024/01/19 13:05:31;;;;;;;9.57;2.08;;;;;;;3.39;100.00;101442.75;6253156;28;20350;-74
2024/01/19 13:08:33;;;;;;;4.57;1.95;;;;;;;3.42;100.00;101446.19;6252934;28;20049;-73
2024/01/19 13:11:34;;;;;;;8.93;2.20;;;;;;;3.39;100.00;101464.38;6253105;28;20140;-76
2024/01/19 13:14:36;;;;;;;6.88;1.98;;;;;;;3.47;100.00;101454.78;6246866;28;20061;-75
2024/01/19 13:17:38;;;;;;;12.13;2.47;;;;;;;3.46;100.00;101455.66;6244400;28;20056;-74
2024/01/19 13:20:41;;;;;;;5.78;1.95;;;;;;;3.49;100.00;101446.94;6249556;28;20053;-75
2024/01/19 13:23:43;;;;;;;5.05;1.73;;;;;;;3.45;100.00;101450.47;6252352;28;20052;-75
2024/01/19 13:26:45;;;;;;;6.38;1.70;;;;;;;3.43;100.00;101463.47;6251993;28;20084;-75
2024/01/19 13:29:47;;;;;;;8.90;2.30;;;;;;;3.33;100.00;101464.47;6252526;28;20118;-75
2024/01/19 13:32:48;;;;;;;14.18;2.72;;;;;;;3.31;100.00;101474.88;6252192;28;20140;-73
2024/01/19 13:35:51;;;;;;;9.30;2.55;;;;;;;3.29;100.00;101473.19;6252228;28;20045;-73
2024/01/19 13:38:52;;;;;;;7.35;2.53;;;;;;;3.30;100.00;101477.50;6252144;28;20063;-73
2024/01/19 13:41:54;;;;;;;7.03;2.50;;;;;;;3.34;100.00;101493.91;6252109;28;20041;-74
2024/01/19 13:44:55;;;;;;;8.45;3.40;;;;;;;3.28;100.00;101493.09;6251500;28;20360;-74
2024/01/19 13:47:56;;;;;;;9.43;2.15;;;;;;;3.22;100.00;101494.91;6232021;28;20046;-74
2024/01/19 13:50:59;;;;;;;5.10;2.53;;;;;;;3.26;100.00;101499.19;6227548;28;20046;-73
2024/01/19 13:54:01;;;;;;;13.63;3.83;;;;;;;3.26;100.00;101513.03;6244426;28;20049;-73
2024/01/19 13:57:02;;;;;;;12.95;3.45;;;;;;;3.22;100.00;101513.94;6251387;28;20075;-74
2024/01/19 14:00:05;;;;;;;10.00;2.40;;;;;;;3.16;100.00;101508.81;6251720;28;20053;-74
2024/01/19 14:03:07;;;;;;;8.70;3.17;;;;;;;3.21;100.00;101498.38;6250412;28;20458;-74